createdAt,value
2019-05-18T00:00:38.836Z,693.6
2019-05-18T00:01:40.995Z,693.8
2019-05-18T00:02:42.861Z,693.7
2019-05-18T00:03:45.285Z,693.6
2019-05-18T00:04:47.712Z,693.3
2019-05-18T00:05:50.141Z,693.4
2019-05-18T00:06:52.014Z,693.3
2019-05-18T00:07:53.615Z,693.5
2019-05-18T00:08:56.061Z,693.4
2019-05-18T00:09:57.963Z,693.3
2019-05-18T00:11:00.134Z,693.5
2019-05-18T00:12:02.557Z,693.6
2019-05-18T00:13:04.712Z,693.7
2019-05-18T00:14:07.153Z,693.5
2019-05-18T00:15:09.593Z,693.6
2019-05-18T00:16:12.051Z,693.7
2019-05-18T00:18:19.451Z,693.5
2019-05-18T00:19:21.875Z,694
2019-05-18T00:20:24.059Z,693.7
2019-05-18T00:21:26.203Z,693.8
2019-05-18T00:22:28.637Z,693.8
2019-05-18T00:23:30.785Z,693.6
2019-05-18T00:24:32.984Z,693.4
2019-05-18T00:25:35.433Z,693.4
2019-05-18T00:26:37.891Z,693.3
2019-05-18T00:27:40.354Z,693.5
2019-05-18T00:28:42.509Z,693.7
2019-05-18T00:29:44.955Z,693.6
2019-05-18T00:30:47.384Z,693.4
2019-05-18T00:31:49.516Z,694
2019-05-18T00:32:51.947Z,693.8
2019-05-18T00:33:54.375Z,693.6
2019-05-18T00:34:56.799Z,693.9
2019-05-18T00:35:58.696Z,694
2019-05-18T00:37:01.141Z,694
2019-05-18T00:38:03.563Z,694.1
2019-05-18T00:39:05.739Z,694
2019-05-18T00:40:07.892Z,694.1
2019-05-18T00:41:10.084Z,694.3
2019-05-18T00:42:11.948Z,694.1
2019-05-18T00:43:14.373Z,694.1
2019-05-18T00:44:16.546Z,694.1
2019-05-18T00:45:18.954Z,694.3
2019-05-18T00:46:21.114Z,694.4
2019-05-18T00:47:23.556Z,694.4
2019-05-18T00:48:25.701Z,694.5
2019-05-18T00:49:27.576Z,694.6
2019-05-18T00:50:29.736Z,694.8
2019-05-18T00:51:32.161Z,694.8
2019-05-18T00:52:34.596Z,695
2019-05-18T00:53:37.063Z,694.8
2019-05-18T00:54:39.484Z,694.9
2019-05-18T00:55:41.922Z,694.9
2019-05-18T00:56:44.359Z,694.9
2019-05-18T00:57:46.512Z,694.8
2019-05-18T00:58:48.665Z,694.9
2019-05-18T00:59:51.113Z,695
2019-05-18T01:00:53.548Z,695.1
2019-05-18T01:01:55.693Z,694.9
2019-05-18T01:02:57.844Z,695
2019-05-18T01:03:59.698Z,695
2019-05-18T01:05:01.845Z,695
2019-05-18T01:06:04.009Z,695.5
2019-05-18T01:07:05.934Z,695.2
2019-05-18T01:08:08.366Z,695.2
2019-05-18T01:09:10.788Z,695
2019-05-18T01:10:12.940Z,694.9
2019-05-18T01:11:14.813Z,694.9
2019-05-18T01:12:16.940Z,694.8
2019-05-18T01:13:19.093Z,694.7
2019-05-18T01:14:21.256Z,694.6
2019-05-18T01:15:23.473Z,694.7
2019-05-18T01:16:25.661Z,695
2019-05-18T01:17:27.862Z,694.8
2019-05-18T01:18:30.915Z,694.9
2019-05-18T01:19:33.086Z,694.7
2019-05-18T01:20:35.216Z,694.6
2019-05-18T01:21:37.372Z,694.7
2019-05-18T01:22:39.790Z,694.8
2019-05-18T01:23:41.394Z,695
2019-05-18T01:24:43.581Z,695.1
2019-05-18T01:25:46.043Z,695.3
2019-05-18T01:26:48.475Z,695.3
2019-05-18T01:27:50.635Z,695.3
2019-05-18T01:28:53.258Z,695.5
2019-05-18T01:29:55.669Z,695.3
2019-05-18T01:30:58.106Z,695.8
2019-05-18T01:32:00.707Z,695.5
2019-05-18T01:33:02.867Z,695.8
2019-05-18T01:34:05.291Z,695.9
2019-05-18T01:35:07.162Z,696
2019-05-18T01:36:09.301Z,695.9
2019-05-18T01:37:11.468Z,696.1
2019-05-18T01:38:14.067Z,696.1
2019-05-18T01:39:15.930Z,696
2019-05-18T01:40:18.367Z,695.7
2019-05-18T01:41:20.799Z,696
2019-05-18T01:42:22.730Z,696
2019-05-18T01:43:24.601Z,696.2
2019-05-18T01:44:27.028Z,696
2019-05-18T01:45:29.441Z,696.1
2019-05-18T01:46:31.858Z,696
2019-05-18T01:47:34.280Z,696
2019-05-18T01:48:36.452Z,696.4
2019-05-18T01:49:38.880Z,696.4
2019-05-18T01:50:41.368Z,696.5
2019-05-18T01:51:43.802Z,696.4
2019-05-18T01:52:46.224Z,696.8
2019-05-18T01:53:47.811Z,696.9
2019-05-18T01:54:50.239Z,697.1
2019-05-18T01:55:52.664Z,696.9
2019-05-18T01:56:54.813Z,697.2
2019-05-18T01:57:57.247Z,696.7
2019-05-18T01:58:59.407Z,696.7
2019-05-18T02:00:01.841Z,696.4
2019-05-18T02:01:04.593Z,696.6
2019-05-18T02:02:07.040Z,696.5
2019-05-18T02:03:09.459Z,696.5
2019-05-18T02:04:11.341Z,696.7
2019-05-18T02:05:13.503Z,696.5
2019-05-18T02:06:15.945Z,697.1
2019-05-18T02:07:18.097Z,697
2019-05-18T02:08:19.976Z,697.1
2019-05-18T02:09:22.407Z,697
2019-05-18T02:10:24.838Z,696.9
2019-05-18T02:11:27.264Z,697
2019-05-18T02:12:29.703Z,696.9
2019-05-18T02:13:31.850Z,696.7
2019-05-18T02:14:33.717Z,696.9
2019-05-18T02:15:36.149Z,696.9
2019-05-18T02:16:38.610Z,696.8
2019-05-18T02:17:40.774Z,697.1
2019-05-18T02:18:42.935Z,697.1
2019-05-18T02:19:44.549Z,697.3
2019-05-18T02:20:46.719Z,697.4
2019-05-18T02:21:48.887Z,697.1
2019-05-18T02:22:51.046Z,697.7
2019-05-18T02:23:53.467Z,697.9
2019-05-18T02:24:55.628Z,697.5
2019-05-18T02:25:57.771Z,697.8
2019-05-18T02:27:00.230Z,697.8
2019-05-18T02:28:02.670Z,697.8
2019-05-18T02:29:04.816Z,698.3
2019-05-18T02:30:06.997Z,698
2019-05-18T02:31:09.151Z,698.1
2019-05-18T02:32:11.673Z,698.1
2019-05-18T02:33:13.289Z,698.3
2019-05-18T02:34:15.439Z,697.9
2019-05-18T02:35:17.577Z,697.9
2019-05-18T02:36:19.754Z,698.1
2019-05-18T02:37:22.176Z,697.8
2019-05-18T02:38:24.605Z,697.9
2019-05-18T02:39:27.046Z,698.1
2019-05-18T02:40:29.202Z,698.1
2019-05-18T02:41:31.639Z,698.1
2019-05-18T02:42:33.792Z,698
2019-05-18T02:43:35.972Z,697.8
2019-05-18T02:44:38.116Z,698.3
2019-05-18T02:45:40.553Z,698.2
2019-05-18T02:46:42.989Z,698.2
2019-05-18T02:47:45.136Z,698.2
2019-05-18T02:49:52.360Z,697.8
2019-05-18T02:50:54.508Z,697.8
2019-05-18T02:51:56.674Z,697.7
2019-05-18T02:52:58.836Z,697.7
2019-05-18T02:54:00.714Z,697.8
2019-05-18T02:55:02.885Z,697.9
2019-05-18T02:56:05.323Z,697.9
2019-05-18T02:57:07.756Z,697.8
2019-05-18T02:58:09.909Z,697.8
2019-05-18T02:59:12.347Z,698.1
2019-05-18T03:00:14.511Z,698
2019-05-18T03:01:17.027Z,698.2
2019-05-18T03:02:19.455Z,698.1
2019-05-18T03:03:21.639Z,697.9
2019-05-18T03:04:24.057Z,697.9
2019-05-18T03:05:26.486Z,698.2
2019-05-18T03:06:28.913Z,697.9
2019-05-18T03:07:31.348Z,697.5
2019-05-18T03:08:33.776Z,697.5
2019-05-18T03:09:36.198Z,697.8
2019-05-18T03:10:38.347Z,697.9
2019-05-18T03:11:40.777Z,698
2019-05-18T03:12:43.217Z,698
2019-05-18T03:13:45.374Z,697.7
2019-05-18T03:14:47.557Z,697.9
2019-05-18T03:15:49.984Z,697.4
2019-05-18T03:16:52.100Z,697.6
2019-05-18T03:17:55.140Z,697.7
2019-05-18T03:20:02.328Z,697.2
2019-05-18T03:21:04.483Z,697.3
2019-05-18T03:22:06.642Z,697.4
2019-05-18T03:23:08.894Z,697.4
2019-05-18T03:24:11.326Z,697.3
2019-05-18T03:25:13.517Z,697.3
2019-05-18T03:26:15.947Z,697.4
2019-05-18T03:27:18.363Z,697
2019-05-18T03:28:20.796Z,696.8
2019-05-18T03:29:23.363Z,697.7
2019-05-18T03:30:25.797Z,697
2019-05-18T03:31:28.274Z,697.3
2019-05-18T03:32:30.490Z,697.4
2019-05-18T03:33:32.957Z,697.5
2019-05-18T03:34:34.841Z,697.3
2019-05-18T03:35:37.276Z,697.3
2019-05-18T03:36:39.726Z,697.3
2019-05-18T03:37:42.155Z,697.5
2019-05-18T03:38:44.685Z,697
2019-05-18T03:39:47.133Z,696.9
2019-05-18T03:40:49.564Z,696.7
2019-05-18T03:41:51.985Z,696.9
2019-05-18T03:42:54.477Z,696.7
2019-05-18T03:43:56.903Z,696.9
2019-05-18T03:44:59.344Z,696.5
2019-05-18T03:46:01.779Z,696.3
2019-05-18T03:47:04.255Z,696.5
2019-05-18T03:48:06.406Z,697
2019-05-18T03:50:13.809Z,696.8
2019-05-18T03:51:16.439Z,696.3
2019-05-18T03:52:18.333Z,696.7
2019-05-18T03:53:20.485Z,696.7
2019-05-18T03:54:22.917Z,696.5
2019-05-18T03:55:25.051Z,696.2
2019-05-18T03:56:26.936Z,696.2
2019-05-18T03:57:29.084Z,696.5
2019-05-18T03:58:31.528Z,696
2019-05-18T03:59:33.416Z,696.4
2019-05-18T04:00:35.884Z,696.2
2019-05-18T04:01:38.077Z,696
2019-05-18T04:02:40.503Z,696.1
2019-05-18T04:03:42.930Z,695.7
2019-05-18T04:04:45.354Z,695.7
2019-05-18T04:05:47.789Z,696.2
2019-05-18T04:06:50.225Z,696.3
2019-05-18T04:07:52.112Z,696.1
2019-05-18T04:08:54.552Z,696
2019-05-18T04:09:56.986Z,696.2
2019-05-18T04:10:58.880Z,696.1
2019-05-18T04:12:01.326Z,696.2
2019-05-18T04:13:03.504Z,695.9
2019-05-18T04:15:10.634Z,695.5
2019-05-18T04:16:12.257Z,695.4
2019-05-18T04:17:14.674Z,695.4
2019-05-18T04:18:16.883Z,695.2
2019-05-18T04:19:19.308Z,694.8
2019-05-18T04:20:21.795Z,695.1
2019-05-18T04:21:24.219Z,695.2
2019-05-18T04:22:26.643Z,694.6
2019-05-18T04:23:29.069Z,694.4
2019-05-18T04:24:31.308Z,694.7
2019-05-18T04:25:33.443Z,694.9
2019-05-18T04:26:35.594Z,694.5
2019-05-18T04:27:38.019Z,694.4
2019-05-18T04:28:40.205Z,695.1
2019-05-18T04:29:42.640Z,694.9
2019-05-18T04:30:45.059Z,694.9
2019-05-18T04:31:47.489Z,695
2019-05-18T04:32:49.921Z,695.2
2019-05-18T04:33:52.074Z,694.8
2019-05-18T04:34:53.685Z,695
2019-05-18T04:35:56.721Z,695.1
2019-05-18T04:36:59.150Z,695.2
2019-05-18T04:38:30.899Z,694.8
2019-05-18T04:39:33.044Z,694.8
2019-05-18T04:40:35.203Z,694.3
2019-05-18T04:41:37.676Z,694.4
2019-05-18T04:42:40.106Z,694.1
2019-05-18T04:43:42.264Z,694.3
2019-05-18T04:44:44.425Z,693.9
2019-05-18T04:45:46.850Z,694.1
2019-05-18T04:46:49.275Z,694.1
2019-05-18T04:47:51.708Z,694.3
2019-05-18T04:48:54.147Z,694.2
2019-05-18T04:51:01.570Z,693.9
2019-05-18T04:52:03.455Z,694.1
2019-05-18T04:53:05.604Z,693.7
2019-05-18T04:54:08.071Z,694.2
2019-05-18T04:55:10.225Z,694.1
2019-05-18T04:56:12.118Z,694
2019-05-18T04:57:14.285Z,694
2019-05-18T04:58:16.634Z,694.4
2019-05-18T04:59:18.804Z,694.2
2019-05-18T05:00:21.229Z,694.1
2019-05-18T05:01:23.723Z,694.4
2019-05-18T05:02:26.162Z,694.1
2019-05-18T05:03:28.932Z,693.7
2019-05-18T05:04:31.082Z,693.9
2019-05-18T05:05:33.236Z,694.3
2019-05-18T05:06:35.657Z,694
2019-05-18T05:07:38.198Z,694.1
2019-05-18T05:08:40.346Z,694.1
2019-05-18T05:09:42.777Z,694.4
2019-05-18T05:10:45.202Z,694.3
2019-05-18T05:11:47.640Z,694.2
2019-05-18T05:12:50.072Z,694.2
2019-05-18T05:13:52.240Z,694.2
2019-05-18T05:14:54.674Z,694.1
2019-05-18T05:15:56.264Z,694.5
2019-05-18T05:16:58.426Z,694.3
2019-05-18T05:18:00.616Z,694.3
2019-05-18T05:19:03.061Z,694.1
2019-05-18T05:21:10.991Z,693.9
2019-05-18T05:22:13.415Z,694.2
2019-05-18T05:23:15.583Z,694.1
2019-05-18T05:24:17.992Z,693.9
2019-05-18T05:25:20.930Z,694.2
2019-05-18T05:26:23.150Z,694
2019-05-18T05:27:25.568Z,693.6
2019-05-18T05:28:28.000Z,693.6
2019-05-18T05:29:30.167Z,693.7
2019-05-18T05:30:32.594Z,693.8
2019-05-18T05:31:34.733Z,693.5
2019-05-18T05:32:37.060Z,693.1
2019-05-18T05:33:39.514Z,693.6
2019-05-18T05:34:41.676Z,693.7
2019-05-18T05:35:44.108Z,693.8
2019-05-18T05:36:46.462Z,693.2
2019-05-18T05:37:48.653Z,693.2
2019-05-18T05:38:51.092Z,693.3
2019-05-18T05:39:53.233Z,693.5
2019-05-18T05:40:55.662Z,693.8
2019-05-18T05:41:58.090Z,693.7
2019-05-18T05:43:00.522Z,693.5
2019-05-18T05:44:02.408Z,693.2
2019-05-18T05:45:04.842Z,692.9
2019-05-18T05:46:06.976Z,692.7
2019-05-18T05:47:09.404Z,692.7
2019-05-18T05:48:11.828Z,692.4
2019-05-18T05:49:13.950Z,692.4
2019-05-18T05:50:16.112Z,692.3
2019-05-18T05:51:18.544Z,692.3
2019-05-18T05:52:20.743Z,692.5
2019-05-18T05:53:23.175Z,692.1
2019-05-18T05:54:25.055Z,691.9
2019-05-18T05:55:26.930Z,691.8
2019-05-18T05:56:29.093Z,692.5
2019-05-18T05:57:31.250Z,692.1
2019-05-18T05:58:33.420Z,692.1
2019-05-18T05:59:35.566Z,692.1
2019-05-18T06:00:37.184Z,692.2
2019-05-18T06:01:39.322Z,692.3
2019-05-18T06:02:41.204Z,692.4
2019-05-18T06:03:43.365Z,692.8
2019-05-18T06:04:45.528Z,692.5
2019-05-18T06:05:47.957Z,692.9
2019-05-18T06:06:50.114Z,692.8
2019-05-18T06:07:51.998Z,692.9
2019-05-18T06:08:54.183Z,692.7
2019-05-18T06:09:56.799Z,693
2019-05-18T06:10:58.949Z,692.6
2019-05-18T06:12:01.111Z,692.4
2019-05-18T06:13:04.185Z,692.9
2019-05-18T06:14:06.361Z,692.6
2019-05-18T06:15:08.794Z,693
2019-05-18T06:16:11.218Z,692.8
2019-05-18T06:17:13.663Z,692.5
2019-05-18T06:18:16.371Z,692.1
2019-05-18T06:19:18.819Z,692.3
2019-05-18T06:20:20.975Z,692.2
2019-05-18T06:21:23.322Z,692.2
2019-05-18T06:22:25.757Z,692
2019-05-18T06:23:28.222Z,691.8
2019-05-18T06:24:30.385Z,692.3
2019-05-18T06:26:37.558Z,692.2
2019-05-18T06:27:39.996Z,692.6
2019-05-18T06:28:42.426Z,692.7
2019-05-18T06:29:44.582Z,692.4
2019-05-18T06:30:47.723Z,692.5
2019-05-18T06:31:49.868Z,692.6
2019-05-18T06:32:52.021Z,692.2
2019-05-18T06:33:54.178Z,692.3
2019-05-18T06:34:56.606Z,692.4
2019-05-18T06:35:59.030Z,692.4
2019-05-18T06:37:00.904Z,692.4
2019-05-18T06:38:03.074Z,692.7
2019-05-18T06:39:04.958Z,692.8
2019-05-18T06:40:07.118Z,692.5
2019-05-18T06:41:09.556Z,692.4
2019-05-18T06:42:12.346Z,692.7
2019-05-18T06:43:14.776Z,692.5
2019-05-18T06:44:16.923Z,692.7
2019-05-18T06:45:19.086Z,692.5
2019-05-18T06:46:21.517Z,692.4
2019-05-18T06:47:23.677Z,692.7
2019-05-18T06:48:26.122Z,692.7
2019-05-18T06:49:28.273Z,692.4
2019-05-18T06:50:30.711Z,692.6
2019-05-18T06:51:33.128Z,692.7
2019-05-18T06:52:35.281Z,692.5
2019-05-18T06:53:37.453Z,692.5
2019-05-18T06:54:39.607Z,692.7
2019-05-18T06:55:42.290Z,692.5
2019-05-18T06:56:44.574Z,692.8
2019-05-18T06:57:46.215Z,692.5
2019-05-18T06:58:48.408Z,692.5
2019-05-18T06:59:50.876Z,693
2019-05-18T07:00:53.055Z,693
2019-05-18T07:01:55.238Z,693
2019-05-18T07:02:57.674Z,693
2019-05-18T07:04:00.113Z,693
2019-05-18T07:05:02.568Z,692.9
2019-05-18T07:06:34.316Z,692.9
2019-05-18T07:07:36.163Z,692.6
2019-05-18T07:08:38.344Z,692.9
2019-05-18T07:09:40.785Z,692.6
2019-05-18T07:10:43.235Z,692.9
2019-05-18T07:11:45.386Z,692.8
2019-05-18T07:12:47.280Z,692.8
2019-05-18T07:13:50.314Z,692.7
2019-05-18T07:14:52.481Z,692.7
2019-05-18T07:15:54.646Z,692.6
2019-05-18T07:16:57.256Z,692.6
2019-05-18T07:17:59.674Z,692.6
2019-05-18T07:19:02.347Z,692.5
2019-05-18T07:20:04.774Z,692.6
2019-05-18T07:22:13.084Z,692
2019-05-18T07:23:15.593Z,692.4
2019-05-18T07:24:17.753Z,692.7
2019-05-18T07:25:20.192Z,693
2019-05-18T07:26:22.807Z,693.1
2019-05-18T07:27:25.373Z,692.9
2019-05-18T07:28:27.795Z,692.8
2019-05-18T07:29:30.225Z,692.7
2019-05-18T07:30:32.666Z,692.8
2019-05-18T07:31:34.794Z,692.8
2019-05-18T07:32:36.949Z,693.1
2019-05-18T07:33:39.414Z,693.1
2019-05-18T07:34:41.836Z,693.3
2019-05-18T07:35:44.272Z,693.2
2019-05-18T07:36:46.491Z,693.2
2019-05-18T07:37:48.646Z,693.1
2019-05-18T07:38:51.064Z,693.7
2019-05-18T07:39:53.527Z,693.2
2019-05-18T07:40:55.952Z,693.5
2019-05-18T07:41:58.383Z,693.5
2019-05-18T07:43:00.823Z,693.3
2019-05-18T07:44:04.067Z,693.6
2019-05-18T07:45:08.611Z,693.4
2019-05-18T07:46:11.044Z,693.7
2019-05-18T07:47:12.935Z,693.6
2019-05-18T07:48:15.084Z,694.1
2019-05-18T07:49:17.523Z,694.2
2019-05-18T07:50:19.418Z,694.2
2019-05-18T07:52:28.033Z,694.7
2019-05-18T07:53:30.242Z,694
2019-05-18T07:54:32.668Z,694.3
2019-05-18T07:55:35.433Z,694.3
2019-05-18T07:56:37.885Z,694.2
2019-05-18T07:57:40.336Z,693.9
2019-05-18T07:58:42.552Z,694.3
2019-05-18T07:59:44.711Z,693.7
2019-05-18T08:00:47.136Z,694.2
2019-05-18T08:01:49.570Z,694.2
2019-05-18T08:02:51.774Z,694
2019-05-18T08:03:54.223Z,694
2019-05-18T08:04:56.715Z,693.8
2019-05-18T08:05:58.854Z,693.8
2019-05-18T08:07:02.344Z,693.9
2019-05-18T08:08:04.973Z,694.2
2019-05-18T08:09:07.984Z,694.4
2019-05-18T08:10:10.965Z,694.5
2019-05-18T08:11:13.311Z,694.4
2019-05-18T08:12:15.735Z,694.4
2019-05-18T08:13:18.282Z,694.8
2019-05-18T08:14:20.715Z,694.5
2019-05-18T08:15:23.150Z,694.9
2019-05-18T08:16:25.029Z,694.7
2019-05-18T08:17:27.160Z,694.6
2019-05-18T08:18:29.320Z,694.6
2019-05-18T08:19:31.744Z,694.9
2019-05-18T08:20:34.238Z,694.5
2019-05-18T08:21:50.802Z,694.5
2019-05-18T08:22:43.649Z,694.6
2019-05-18T08:23:46.084Z,694.3
2019-05-18T08:24:48.496Z,694.5
2019-05-18T08:25:50.677Z,694.6
2019-05-18T08:26:53.557Z,694.7
2019-05-18T08:27:55.720Z,694.7
2019-05-18T08:28:58.164Z,694.6
2019-05-18T08:30:00.374Z,694.3
2019-05-18T08:31:02.554Z,694.2
2019-05-18T08:32:05.020Z,694.6
2019-05-18T08:33:07.480Z,693.9
2019-05-18T08:34:09.922Z,694.5
2019-05-18T08:35:12.106Z,694.4
2019-05-18T08:36:14.538Z,694.1
2019-05-18T08:37:16.559Z,694.3
2019-05-18T08:38:19.018Z,694.2
2019-05-18T08:39:21.437Z,694.3
2019-05-18T08:40:23.863Z,694.6
2019-05-18T08:41:25.747Z,694.2
2019-05-18T08:42:27.643Z,694.5
2019-05-18T08:43:30.062Z,694.6
2019-05-18T08:44:32.505Z,694.9
2019-05-18T08:45:34.930Z,695
2019-05-18T08:46:37.091Z,695
2019-05-18T08:47:39.553Z,695.2
2019-05-18T08:48:42.604Z,695
2019-05-18T08:49:45.044Z,695
2019-05-18T08:50:47.646Z,695.1
2019-05-18T08:51:49.499Z,694.8
2019-05-18T08:52:51.684Z,695.4
2019-05-18T08:53:54.179Z,695.5
2019-05-18T08:54:56.327Z,695.2
2019-05-18T08:55:58.810Z,695.4
2019-05-18T08:57:01.001Z,695.4
2019-05-18T08:58:03.448Z,695.8
2019-05-18T08:59:05.591Z,695.6
2019-05-18T09:00:08.010Z,695.7
2019-05-18T09:01:10.464Z,695.7
2019-05-18T09:02:12.622Z,695.6
2019-05-18T09:03:15.054Z,695.5
2019-05-18T09:04:17.207Z,695.6
2019-05-18T09:05:19.386Z,695.7
2019-05-18T09:06:21.267Z,695.9
2019-05-18T09:07:23.696Z,695.3
2019-05-18T09:08:26.124Z,695.4
2019-05-18T09:09:28.542Z,695.5
2019-05-18T09:10:30.975Z,695.4
2019-05-18T09:11:33.436Z,695.4
2019-05-18T09:12:35.604Z,695.3
2019-05-18T09:13:38.038Z,695.4
2019-05-18T09:14:40.474Z,695.4
2019-05-18T09:15:42.658Z,695.5
2019-05-18T09:16:44.807Z,695.5
2019-05-18T09:17:47.247Z,695.6
2019-05-18T09:18:49.405Z,695.6
2019-05-18T09:19:51.852Z,695.6
2019-05-18T09:20:54.710Z,695.4
2019-05-18T09:21:57.333Z,695.5
2019-05-18T09:22:59.785Z,695.4
2019-05-18T09:24:01.664Z,695.4
2019-05-18T09:25:04.422Z,695.1
2019-05-18T09:26:06.594Z,695.3
2019-05-18T09:27:09.064Z,695.7
2019-05-18T09:28:11.484Z,696.1
2019-05-18T09:29:13.642Z,696.1
2019-05-18T09:30:16.277Z,696.1
2019-05-18T09:31:18.429Z,696.3
2019-05-18T09:32:20.892Z,695.8
2019-05-18T09:33:23.378Z,696.3
2019-05-18T09:34:25.538Z,696.2
2019-05-18T09:35:27.702Z,696
2019-05-18T09:36:30.180Z,696.4
2019-05-18T09:37:32.605Z,695.8
2019-05-18T09:38:35.525Z,696.2
2019-05-18T09:39:38.294Z,696.2
2019-05-18T09:40:40.442Z,696.3
2019-05-18T09:41:42.640Z,696.6
2019-05-18T09:42:45.795Z,696.3
2019-05-18T09:43:48.244Z,696.1
2019-05-18T09:44:50.404Z,696.4
2019-05-18T09:45:52.839Z,696.2
2019-05-18T09:46:55.028Z,696.3
2019-05-18T09:47:57.195Z,696.2
2019-05-18T09:48:59.622Z,696.2
2019-05-18T09:50:02.080Z,696
2019-05-18T09:51:04.552Z,695.7
2019-05-18T09:52:06.450Z,695.8
2019-05-18T09:53:08.885Z,696
2019-05-18T09:54:11.038Z,695.7
2019-05-18T09:55:12.916Z,696.1
2019-05-18T09:56:15.097Z,696.1
2019-05-18T09:57:17.540Z,695.8
2019-05-18T09:58:19.969Z,695.9
2019-05-18T09:59:22.403Z,696.2
2019-05-18T10:00:24.844Z,696.3
2019-05-18T10:01:27.272Z,695.7
2019-05-18T10:02:29.443Z,696.1
2019-05-18T10:03:31.884Z,696
2019-05-18T10:04:34.449Z,696
2019-05-18T10:05:36.893Z,696.5
2019-05-18T10:06:39.087Z,696.1
2019-05-18T10:07:41.525Z,696
2019-05-18T10:08:43.964Z,696
2019-05-18T10:09:46.400Z,696.1
2019-05-18T10:10:48.538Z,696.5
2019-05-18T10:11:50.970Z,696.4
2019-05-18T10:12:52.866Z,696.5
2019-05-18T10:13:55.037Z,696.4
2019-05-18T10:14:57.387Z,696.2
2019-05-18T10:16:00.421Z,696.2
2019-05-18T10:17:02.324Z,696.6
2019-05-18T10:18:04.837Z,696.9
2019-05-18T10:19:07.263Z,696.2
2019-05-18T10:20:09.476Z,696.8
2019-05-18T10:21:11.916Z,696.2
2019-05-18T10:22:14.079Z,696.8
2019-05-18T10:23:16.502Z,696.9
2019-05-18T10:24:18.958Z,697.2
2019-05-18T10:25:21.390Z,696.8
2019-05-18T10:26:26.358Z,697
2019-05-18T10:27:29.097Z,697
2019-05-18T10:28:32.592Z,697
2019-05-18T10:29:35.018Z,696.7
2019-05-18T10:30:38.026Z,697.2
2019-05-18T10:31:40.177Z,696.9
2019-05-18T10:32:42.334Z,697
2019-05-18T10:33:44.769Z,697
2019-05-18T10:34:46.944Z,697.4
2019-05-18T10:35:49.384Z,697.2
2019-05-18T10:36:51.805Z,696.9
2019-05-18T10:37:54.252Z,697
2019-05-18T10:38:56.128Z,697.5
2019-05-18T10:39:58.284Z,697.1
2019-05-18T10:41:00.703Z,697.2
2019-05-18T10:42:03.137Z,697.5
2019-05-18T10:43:05.648Z,697.3
2019-05-18T10:44:07.607Z,697.2
2019-05-18T10:45:10.078Z,697.4
2019-05-18T10:46:12.570Z,697.4
2019-05-18T10:47:15.240Z,697.2
2019-05-18T10:48:19.212Z,697.6
2019-05-18T10:49:21.855Z,697.8
2019-05-18T10:50:24.294Z,697.3
2019-05-18T10:51:26.764Z,697.7
2019-05-18T10:52:28.925Z,697.8
2019-05-18T10:53:31.122Z,697.9
2019-05-18T10:54:33.717Z,698.2
2019-05-18T10:55:36.154Z,697.7
2019-05-18T10:56:38.887Z,698
2019-05-18T10:57:41.314Z,697.8
2019-05-18T10:58:43.745Z,698.5
2019-05-18T10:59:46.183Z,698.4
2019-05-18T11:00:48.909Z,698.8
2019-05-18T11:01:51.347Z,698.3
2019-05-18T11:02:53.784Z,698.5
2019-05-18T11:03:55.940Z,698.5
2019-05-18T11:04:58.400Z,698.7
2019-05-18T11:06:00.838Z,698.5
2019-05-18T11:07:03.290Z,698.6
2019-05-18T11:08:05.797Z,698.1
2019-05-18T11:09:07.929Z,698.5
2019-05-18T11:10:10.393Z,698.5
2019-05-18T11:11:12.825Z,698.9
2019-05-18T11:12:15.253Z,698.5
2019-05-18T11:13:19.088Z,699
2019-05-18T11:14:21.467Z,699.2
2019-05-18T11:15:23.859Z,699
2019-05-18T11:16:26.014Z,699.3
2019-05-18T11:17:29.073Z,699.3
2019-05-18T11:18:32.386Z,699.4
2019-05-18T11:19:34.807Z,699.2
2019-05-18T11:20:36.979Z,699.3
2019-05-18T11:21:39.148Z,699.1
2019-05-18T11:22:41.585Z,699.1
2019-05-18T11:24:48.670Z,699.2
2019-05-18T11:25:51.678Z,699.3
2019-05-18T11:26:53.831Z,699.5
2019-05-18T11:27:56.001Z,699.9
2019-05-18T11:28:58.504Z,699.9
2019-05-18T11:30:00.644Z,699.8
2019-05-18T11:31:03.693Z,699.5
2019-05-18T11:32:06.711Z,700.1
2019-05-18T11:33:09.152Z,700.3
2019-05-18T11:34:11.318Z,700.5
2019-05-18T11:35:13.995Z,700.2
2019-05-18T11:36:17.204Z,700
2019-05-18T11:37:19.630Z,700.3
2019-05-18T11:38:22.089Z,699.6
2019-05-18T11:39:24.236Z,700
2019-05-18T11:40:26.869Z,700.1
2019-05-18T11:41:29.291Z,700
2019-05-18T11:42:31.717Z,699.9
2019-05-18T11:43:33.620Z,699.7
2019-05-18T11:44:36.050Z,699.9
2019-05-18T11:45:38.494Z,699.9
2019-05-18T11:46:41.057Z,699.9
2019-05-18T11:47:43.492Z,699.9
2019-05-18T11:48:45.662Z,700
2019-05-18T11:49:48.097Z,699.7
2019-05-18T11:50:50.254Z,699.5
2019-05-18T11:51:52.154Z,699.9
2019-05-18T11:52:54.065Z,700
2019-05-18T11:55:01.178Z,700.2
2019-05-18T11:56:03.600Z,700.1
2019-05-18T11:57:05.789Z,700.4
2019-05-18T11:58:08.228Z,700.1
2019-05-18T11:59:10.386Z,700.3
2019-05-18T12:00:12.545Z,700.3
2019-05-18T12:01:14.979Z,700.4
2019-05-18T12:02:17.611Z,700.5
2019-05-18T12:03:20.166Z,700
2019-05-18T12:04:23.161Z,700.6
2019-05-18T12:05:25.314Z,700.3
2019-05-18T12:06:27.195Z,700.3
2019-05-18T12:07:29.345Z,700.5
2019-05-18T12:08:31.783Z,700.5
2019-05-18T12:09:34.334Z,700.2
2019-05-18T12:10:36.235Z,700.6
2019-05-18T12:11:38.655Z,700.1
2019-05-18T12:12:41.157Z,700.7
2019-05-18T12:13:43.917Z,700.6
2019-05-18T12:14:46.353Z,700.6
2019-05-18T12:15:48.785Z,700.4
2019-05-18T12:16:51.213Z,700.6
2019-05-18T12:17:53.098Z,700.9
2019-05-18T12:20:00.740Z,700.3
2019-05-18T12:21:02.635Z,700.7
2019-05-18T12:22:04.888Z,700.9
2019-05-18T12:25:17.282Z,700.7
2019-05-18T12:26:19.733Z,700.7
2019-05-18T12:27:21.895Z,701
2019-05-18T12:28:24.324Z,701.3
2019-05-18T12:29:26.761Z,701.1
2019-05-18T12:30:30.313Z,701.4
2019-05-18T12:31:32.472Z,701.3
2019-05-18T12:32:35.873Z,701.3
2019-05-18T12:33:38.305Z,701.7
2019-05-18T12:34:44.306Z,701.7
2019-05-18T12:35:47.365Z,702
2019-05-18T12:36:49.794Z,702.1
2019-05-18T12:37:51.955Z,701.6
2019-05-18T12:38:54.389Z,702
2019-05-18T12:39:56.560Z,702.1
2019-05-18T12:40:58.703Z,702.1
2019-05-18T12:42:01.141Z,702.3
2019-05-18T12:43:03.295Z,702.4
2019-05-18T12:44:05.165Z,701.9
2019-05-18T12:45:07.071Z,702.1
2019-05-18T12:46:09.246Z,702.3
2019-05-18T12:48:17.129Z,702.3
2019-05-18T12:49:19.572Z,702.6
2019-05-18T12:50:21.714Z,702.7
2019-05-18T12:51:23.877Z,702.2
2019-05-18T12:52:26.001Z,702.3
2019-05-18T12:53:28.157Z,702.3
2019-05-18T12:55:35.027Z,702.4
2019-05-18T12:56:37.460Z,702.2
2019-05-18T12:57:39.610Z,702.3
2019-05-18T12:58:41.779Z,702.5
2019-05-18T12:59:43.932Z,702.6
2019-05-18T13:00:46.372Z,702.7
2019-05-18T13:01:48.949Z,703.1
2019-05-18T13:02:51.283Z,702.5
2019-05-18T13:03:53.270Z,703.2
2019-05-18T13:04:55.706Z,702.8
2019-05-18T13:05:58.185Z,703
2019-05-18T13:07:00.111Z,703.2
2019-05-18T13:08:02.542Z,702.8
2019-05-18T13:09:04.984Z,703
2019-05-18T13:10:07.437Z,703.1
2019-05-18T13:11:09.863Z,702.5
2019-05-18T13:12:13.786Z,702.8
2019-05-18T13:13:16.218Z,702.9
2019-05-18T13:14:18.657Z,702.5
2019-05-18T13:15:21.094Z,703.1
2019-05-18T13:16:23.257Z,703
2019-05-18T13:17:25.687Z,703.4
2019-05-18T13:18:27.562Z,703.3
2019-05-18T13:19:29.694Z,703.7
2019-05-18T13:20:32.133Z,703.8
2019-05-18T13:21:34.565Z,703.7
2019-05-18T13:22:37.014Z,703.6
2019-05-18T13:23:39.459Z,703.7
2019-05-18T13:25:47.075Z,704.1
2019-05-18T13:26:50.129Z,704.1
2019-05-18T13:27:52.825Z,704.1
2019-05-18T13:29:24.006Z,704.1
2019-05-18T13:30:26.446Z,704.6
2019-05-18T13:31:28.597Z,704.9
2019-05-18T13:32:31.026Z,704.8
2019-05-18T13:33:33.465Z,704.4
2019-05-18T13:34:35.908Z,704.4
2019-05-18T13:35:38.376Z,704
2019-05-18T13:36:40.536Z,704.7
2019-05-18T13:37:42.996Z,704.5
2019-05-18T13:38:45.432Z,704.4
2019-05-18T13:39:47.565Z,704.6
2019-05-18T13:40:50.057Z,704.5
2019-05-18T13:41:52.476Z,704.6
2019-05-18T13:42:54.371Z,704.5
2019-05-18T13:43:56.517Z,705.3
2019-05-18T13:44:58.688Z,705.4
2019-05-18T13:46:01.218Z,705.1
2019-05-18T13:47:03.646Z,705.4
2019-05-18T13:48:07.082Z,705.3
2019-05-18T13:49:10.020Z,705.7
2019-05-18T13:50:12.600Z,705.7